createdAt,value
2023-04-23T00:00:19.602Z,13.50
2023-04-23T00:02:59.350Z,13.40
2023-04-23T00:05:30.319Z,13.40
2023-04-23T00:08:05.555Z,13.30
2023-04-23T00:10:41.090Z,13.40
2023-04-23T00:13:13.793Z,13.40
2023-04-23T00:15:46.769Z,13.40
2023-04-23T00:18:31.748Z,13.40
2023-04-23T00:21:06.075Z,13.40
2023-04-23T00:23:41.004Z,13.40
2023-04-23T00:26:10.634Z,13.40
2023-04-23T01:00:19.181Z,13.30
2023-04-23T01:02:54.501Z,13.30
2023-04-23T01:05:27.184Z,13.20
2023-04-23T01:08:00.165Z,13.30
2023-04-23T01:10:29.238Z,13.30
2023-04-23T01:13:02.137Z,13.30
2023-04-23T01:15:30.737Z,13.30
2023-04-23T01:17:59.809Z,13.30
2023-04-23T01:20:28.604Z,13.30
2023-04-23T01:22:58.299Z,13.30
2023-04-23T01:25:27.207Z,13.30
2023-04-23T01:27:56.074Z,13.20
2023-04-23T01:30:25.630Z,13.20
2023-04-23T01:32:55.956Z,13.20
2023-04-23T01:35:25.229Z,13.20
2023-04-23T01:37:55.436Z,13.20
2023-04-23T01:40:25.451Z,13.10
2023-04-23T01:42:54.064Z,13.00
2023-04-23T01:45:23.209Z,13.00
2023-04-23T01:47:53.018Z,13.10
2023-04-23T01:50:24.698Z,13.10
2023-04-23T01:52:53.460Z,13.10
2023-04-23T01:55:23.960Z,13.10
2023-04-23T01:57:54.071Z,13.10
2023-04-23T02:00:22.382Z,13.10
2023-04-23T02:02:52.989Z,13.10
2023-04-23T02:05:22.496Z,13.10
2023-04-23T02:07:52.442Z,13.10
2023-04-23T02:10:20.634Z,13.10
2023-04-23T02:12:49.474Z,13.10
2023-04-23T02:15:20.129Z,13.10
2023-04-23T02:17:51.282Z,13.10
2023-04-23T02:20:20.434Z,13.10
2023-04-23T02:22:50.418Z,13.00
2023-04-23T02:25:22.119Z,13.00
2023-04-23T02:27:50.716Z,13.00
2023-04-23T02:30:20.731Z,13.00
2023-04-23T02:32:48.874Z,13.00
2023-04-23T02:35:17.126Z,12.90
2023-04-23T02:37:45.904Z,12.90
2023-04-23T02:40:14.132Z,12.90
2023-04-23T02:42:44.020Z,12.90
2023-04-23T02:45:12.806Z,12.90
2023-04-23T02:47:42.796Z,12.80
2023-04-23T02:50:11.708Z,12.80
2023-04-23T02:52:40.013Z,12.70
2023-04-23T02:55:10.038Z,12.70
2023-04-23T02:57:38.818Z,12.70
2023-04-23T03:00:11.109Z,12.70
2023-04-23T03:02:39.796Z,12.70
2023-04-23T03:05:10.648Z,12.80
2023-04-23T03:07:38.956Z,12.70
2023-04-23T03:10:08.297Z,12.70
2023-04-23T03:12:36.687Z,12.70
2023-04-23T03:15:05.458Z,12.70
2023-04-23T03:17:34.794Z,12.70
2023-04-23T03:20:04.235Z,12.70
2023-04-23T03:22:34.506Z,12.60
2023-04-23T03:25:04.089Z,12.60
2023-04-23T03:27:32.106Z,12.60
2023-04-23T03:30:00.199Z,12.60
2023-04-23T03:32:28.175Z,12.50
2023-04-23T03:34:56.173Z,12.50
2023-04-23T03:37:24.114Z,12.50
2023-04-23T03:39:53.499Z,12.50
2023-04-23T03:42:21.801Z,12.40
2023-04-23T03:44:50.290Z,12.40
2023-04-23T03:47:21.967Z,12.40
2023-04-23T03:49:53.702Z,12.40
2023-04-23T03:52:22.360Z,12.40
2023-04-23T03:54:51.350Z,12.40
2023-04-23T03:57:22.385Z,12.40
2023-04-23T03:59:54.011Z,12.40
2023-04-23T04:02:22.725Z,12.30
2023-04-23T04:04:51.947Z,12.30
2023-04-23T04:07:23.187Z,12.20
2023-04-23T04:09:51.471Z,12.20
2023-04-23T04:12:21.556Z,12.20
2023-04-23T04:14:52.987Z,12.20
2023-04-23T04:17:21.396Z,12.10
2023-04-23T04:19:49.832Z,12.10
2023-04-23T04:22:20.832Z,12.00
2023-04-23T04:24:53.022Z,12.00
2023-04-23T04:27:22.989Z,12.10
2023-04-23T04:29:56.564Z,12.10
2023-04-23T04:32:28.318Z,12.10
2023-04-23T04:34:56.994Z,12.10
2023-04-23T04:37:28.157Z,12.20
2023-04-23T04:40:04.528Z,12.20
2023-04-23T04:42:37.962Z,12.30
2023-04-23T04:45:10.808Z,12.20
2023-04-23T04:47:39.493Z,12.10
2023-04-23T04:50:11.296Z,12.20
2023-04-23T04:52:39.992Z,12.10
2023-04-23T04:55:08.914Z,12.10
2023-04-23T04:57:38.500Z,12.10
2023-04-23T05:00:22.647Z,12.20
2023-04-23T05:02:57.342Z,12.20
2023-04-23T05:09:16.895Z,12.30
2023-04-23T05:16:44.916Z,12.30
2023-04-23T05:20:16.532Z,12.30
2023-04-23T05:23:22.123Z,12.40
2023-04-23T05:26:12.974Z,12.40
2023-04-23T05:32:21.897Z,12.50
2023-04-23T05:35:04.686Z,12.60
2023-04-23T05:42:26.333Z,12.70
2023-04-23T05:45:53.419Z,12.70
2023-04-23T05:49:14.795Z,12.80
2023-04-23T05:52:27.110Z,12.80
2023-04-23T05:55:49.235Z,12.70
2023-04-23T06:20:03.596Z,12.50
2023-04-23T06:40:03.501Z,12.80
2023-04-23T06:55:04.741Z,13.10
2023-04-23T06:57:34.276Z,13.10
2023-04-23T07:00:04.469Z,13.20
2023-04-23T07:02:32.977Z,13.30
2023-04-23T07:05:01.346Z,13.30
2023-04-23T07:07:29.752Z,13.40
2023-04-23T07:09:58.045Z,13.40
2023-04-23T07:12:26.153Z,13.60
2023-04-23T07:14:56.316Z,13.70
2023-04-23T07:17:24.394Z,13.70
2023-04-23T07:19:52.505Z,13.80
2023-04-23T07:22:20.645Z,13.90
2023-04-23T07:24:48.652Z,13.90
2023-04-23T07:27:16.858Z,14.10
2023-04-23T07:29:45.068Z,14.10
2023-04-23T07:32:14.666Z,14.10
2023-04-23T07:34:43.077Z,14.20
2023-04-23T07:37:14.002Z,14.20
2023-04-23T07:39:48.429Z,14.30
2023-04-23T07:42:33.781Z,14.40
2023-04-23T07:45:22.867Z,14.50
2023-04-23T07:48:29.025Z,14.60
2023-04-23T07:51:00.035Z,14.70
2023-04-23T07:53:29.348Z,14.70
2023-04-23T07:55:58.351Z,14.70
2023-04-23T07:58:26.839Z,14.90
2023-04-23T08:00:54.998Z,15.00
2023-04-23T08:03:26.015Z,15.10
2023-04-23T08:06:00.859Z,15.10
2023-04-23T08:08:35.906Z,15.30
2023-04-23T08:11:43.643Z,15.50
2023-04-23T08:14:25.050Z,15.80
2023-04-23T08:17:38.949Z,16.00
2023-04-23T08:21:29.953Z,16.30
2023-04-23T08:25:38.174Z,16.20
2023-04-23T08:28:32.765Z,16.20
2023-04-23T08:31:07.189Z,15.90
2023-04-23T08:34:05.175Z,15.90
2023-04-23T08:37:35.771Z,16.00
2023-04-23T08:40:01.690Z,16.40
2023-04-23T08:42:52.766Z,16.70
2023-04-23T08:45:41.903Z,16.90
2023-04-23T08:48:45.230Z,17.00
2023-04-23T08:51:37.397Z,17.00
2023-04-23T08:54:30.135Z,17.00
2023-04-23T08:57:30.546Z,17.10
2023-04-23T09:00:16.835Z,17.10
2023-04-23T09:03:07.576Z,17.10
2023-04-23T09:05:46.406Z,17.00
2023-04-23T09:08:29.071Z,17.20
2023-04-23T09:11:31.217Z,17.30
2023-04-23T09:14:20.967Z,17.30
2023-04-23T09:17:07.118Z,17.50
2023-04-23T09:19:52.983Z,17.70
2023-04-23T09:23:00.194Z,17.60
2023-04-23T09:25:41.963Z,17.50
2023-04-23T09:28:32.910Z,17.60
2023-04-23T09:38:06.914Z,17.90
2023-04-23T09:49:15.676Z,17.90
2023-04-23T09:52:34.412Z,17.90
2023-04-23T09:58:56.697Z,18.40
2023-04-23T10:01:38.483Z,18.40
2023-04-23T10:04:14.489Z,18.50
2023-04-23T10:06:49.997Z,18.60
2023-04-23T10:09:33.758Z,18.70
2023-04-23T10:12:03.793Z,18.60
2023-04-23T10:14:32.425Z,18.60
2023-04-23T10:17:02.113Z,18.50
2023-04-23T10:19:31.266Z,18.60
2023-04-23T10:22:18.431Z,18.70
2023-04-23T10:25:06.570Z,18.70
2023-04-23T10:27:51.165Z,18.70
2023-04-23T10:30:49.911Z,18.70
2023-04-23T10:36:01.925Z,18.60
2023-04-23T10:38:30.816Z,18.50
2023-04-23T10:41:04.898Z,18.70
2023-04-23T10:43:35.039Z,18.80
2023-04-23T10:46:03.885Z,19.00
2023-04-23T10:48:54.166Z,19.10
2023-04-23T10:54:17.038Z,19.20
2023-04-23T10:57:05.768Z,19.20
2023-04-23T10:59:51.979Z,19.50
2023-04-23T11:02:34.167Z,19.80
2023-04-23T11:05:08.380Z,20.00
2023-04-23T11:07:40.536Z,20.10
2023-04-23T11:10:19.128Z,20.30
2023-04-23T11:12:53.563Z,20.30
2023-04-23T11:15:38.262Z,20.30
2023-04-23T11:18:06.636Z,20.40
2023-04-23T11:20:36.613Z,20.40
2023-04-23T11:23:10.673Z,20.40
2023-04-23T11:25:43.025Z,20.60
2023-04-23T11:28:15.969Z,20.50
2023-04-23T11:30:51.403Z,20.60
2023-04-23T11:33:19.518Z,20.80
2023-04-23T11:48:55.877Z,22.80
2023-04-23T11:56:39.963Z,22.10
2023-04-23T12:00:31.259Z,21.90
2023-04-23T12:11:25.208Z,23.50
2023-04-23T12:13:54.054Z,23.30
2023-04-23T12:16:40.106Z,23.40
2023-04-23T12:19:15.076Z,23.90
2023-04-23T12:21:50.481Z,25.40
2023-04-23T12:29:23.967Z,24.60
2023-04-23T12:38:19.938Z,26.10
2023-04-23T12:41:35.915Z,26.60
2023-04-23T12:44:36.447Z,27.00
2023-04-23T12:47:07.373Z,28.00
2023-04-23T12:49:37.035Z,27.90
2023-04-23T12:52:06.490Z,26.80
2023-04-23T12:54:39.082Z,25.70
2023-04-23T12:57:07.845Z,24.60
2023-04-23T12:59:37.095Z,23.90
2023-04-23T13:02:06.594Z,24.30
2023-04-23T13:04:36.718Z,25.20
2023-04-23T13:07:05.216Z,26.10
2023-04-23T13:09:33.128Z,26.90
2023-04-23T13:12:02.476Z,27.00
2023-04-23T13:14:31.749Z,27.90
2023-04-23T13:17:00.978Z,28.90
2023-04-23T13:19:28.897Z,29.60
2023-04-23T13:21:56.744Z,29.20
2023-04-23T13:24:24.737Z,28.60
2023-04-23T13:26:52.664Z,27.70
2023-04-23T13:29:20.523Z,26.70
2023-04-23T13:31:48.402Z,26.10
2023-04-23T13:34:17.971Z,25.50
2023-04-23T13:36:45.943Z,25.20
2023-04-23T13:39:14.268Z,25.10
2023-04-23T13:41:42.305Z,25.40
2023-04-23T13:44:10.370Z,25.70
2023-04-23T13:46:40.050Z,26.10
2023-04-23T13:49:07.978Z,26.50
2023-04-23T13:51:37.307Z,26.70
2023-04-23T13:54:05.470Z,26.40
2023-04-23T13:56:33.814Z,26.20
2023-04-23T14:01:34.936Z,25.10
2023-04-23T14:04:04.368Z,24.80
2023-04-23T14:06:32.613Z,24.60
2023-04-23T14:09:01.908Z,24.30
2023-04-23T14:11:29.908Z,23.70
2023-04-23T14:13:58.292Z,23.40
2023-04-23T14:16:26.280Z,23.30
2023-04-23T14:18:54.218Z,23.30
2023-04-23T14:21:22.984Z,23.30
2023-04-23T14:23:55.991Z,23.10
2023-04-23T14:26:47.085Z,22.80
2023-04-23T14:29:20.093Z,22.50
2023-04-23T14:31:48.113Z,22.40
2023-04-23T14:34:16.342Z,22.30
2023-04-23T14:36:44.558Z,22.20
2023-04-23T14:39:12.512Z,22.10
2023-04-23T14:41:41.864Z,22.10
2023-04-23T14:44:09.739Z,21.90
2023-04-23T14:46:37.951Z,21.80
2023-04-23T14:49:06.356Z,21.70
2023-04-23T14:51:34.327Z,21.40
2023-04-23T14:54:02.430Z,21.10
2023-04-23T14:56:30.317Z,20.90
2023-04-23T14:58:59.612Z,20.60
2023-04-23T15:01:27.662Z,20.50
2023-04-23T15:03:56.325Z,20.40
2023-04-23T15:06:24.218Z,20.20
2023-04-23T15:08:52.164Z,20.10
2023-04-23T15:11:20.278Z,20.00
2023-04-23T15:13:57.654Z,20.00
2023-04-23T15:16:51.688Z,20.00
2023-04-23T15:19:19.754Z,20.10
2023-04-23T15:21:48.323Z,20.10
2023-04-23T15:24:16.606Z,20.10
2023-04-23T15:26:45.695Z,20.10
2023-04-23T15:29:14.132Z,20.10
2023-04-23T15:31:43.630Z,20.00
2023-04-23T15:34:12.242Z,20.00
2023-04-23T15:36:40.557Z,20.00
2023-04-23T15:39:09.762Z,20.00
2023-04-23T15:41:40.590Z,20.00
2023-04-23T15:44:12.048Z,20.00
2023-04-23T15:46:40.491Z,19.90
2023-04-23T15:49:09.942Z,19.80
2023-04-23T15:51:38.031Z,19.60
2023-04-23T15:54:08.721Z,19.30
2023-04-23T15:56:37.469Z,19.10
2023-04-23T15:59:05.522Z,18.90
2023-04-23T16:01:33.547Z,18.70
2023-04-23T16:06:33.788Z,18.30
2023-04-23T16:09:02.377Z,18.00
2023-04-23T16:11:30.400Z,17.60
2023-04-23T16:13:58.273Z,17.00
2023-04-23T16:16:26.420Z,16.50
2023-04-23T16:18:55.745Z,16.10
2023-04-23T16:21:25.145Z,15.80
2023-04-23T16:23:54.463Z,15.50
2023-04-23T16:26:22.492Z,15.20
2023-04-23T16:28:52.142Z,15.00
2023-04-23T16:31:29.088Z,15.00
2023-04-23T16:33:57.376Z,14.90
2023-04-23T16:36:25.482Z,14.90
2023-04-23T16:38:54.855Z,14.90
2023-04-23T16:41:22.979Z,14.90
2023-04-23T16:43:50.949Z,14.90
2023-04-23T16:46:21.733Z,14.90
2023-04-23T16:48:49.863Z,15.00
2023-04-23T16:51:18.038Z,15.10
2023-04-23T16:53:46.047Z,15.10
2023-04-23T16:56:15.345Z,15.00
2023-04-23T16:58:43.372Z,15.00
2023-04-23T17:01:11.849Z,15.10
2023-04-23T17:03:40.007Z,15.20
2023-04-23T17:06:14.110Z,15.20
2023-04-23T17:08:43.915Z,15.10
2023-04-23T17:11:12.145Z,15.20
2023-04-23T17:13:43.503Z,15.20
2023-04-23T17:16:11.802Z,15.20
2023-04-23T17:18:39.716Z,15.10
2023-04-23T17:21:07.937Z,15.20
2023-04-23T17:23:36.117Z,15.20
2023-04-23T17:26:04.089Z,15.30
2023-04-23T17:28:31.991Z,15.20
2023-04-23T17:31:02.436Z,15.30
2023-04-23T17:33:30.846Z,15.30
2023-04-23T17:36:02.278Z,15.30
2023-04-23T17:38:30.496Z,15.30
2023-04-23T17:40:58.708Z,15.30
2023-04-23T17:43:27.350Z,15.30
2023-04-23T17:45:55.451Z,15.30
2023-04-23T17:48:25.399Z,15.30
2023-04-23T17:50:54.470Z,15.20
2023-04-23T17:53:22.570Z,15.10
2023-04-23T17:55:50.658Z,15.00
2023-04-23T17:58:19.321Z,15.00
2023-04-23T18:00:47.475Z,14.90
2023-04-23T18:12:24.951Z,14.80
2023-04-23T18:15:10.368Z,14.70
2023-04-23T18:18:48.211Z,14.70
2023-04-23T18:22:10.929Z,14.60
2023-04-23T18:28:36.049Z,14.50
2023-04-23T18:31:20.686Z,14.40
2023-04-23T18:38:21.393Z,14.40
2023-04-23T18:41:11.560Z,14.30
2023-04-23T18:47:22.221Z,14.30
2023-04-23T18:50:37.503Z,14.30
2023-04-23T18:54:15.787Z,14.30
2023-04-23T18:57:35.186Z,14.40
2023-04-23T19:01:09.818Z,14.40
2023-04-23T19:10:45.315Z,14.40
2023-04-23T19:13:55.252Z,14.40
2023-04-23T19:17:10.467Z,14.40
2023-04-23T19:20:34.185Z,14.30
2023-04-23T19:24:00.816Z,14.40
2023-04-23T19:30:57.890Z,14.30
2023-04-23T19:35:09.955Z,14.30
2023-04-23T19:37:25.519Z,14.30
2023-04-23T19:40:17.486Z,14.30
2023-04-23T19:43:14.700Z,14.30
2023-04-23T19:46:43.304Z,14.20
2023-04-23T19:49:45.574Z,14.20
2023-04-23T19:52:41.950Z,14.20
2023-04-23T19:55:43.778Z,14.20
2023-04-23T19:58:32.570Z,14.10
2023-04-23T20:01:45.807Z,14.10
2023-04-23T20:05:02.918Z,14.10
2023-04-23T20:07:55.374Z,14.00
2023-04-23T20:24:35.174Z,13.80
2023-04-23T20:27:44.367Z,13.80
2023-04-23T20:31:14.470Z,13.70
2023-04-23T20:42:04.731Z,13.50
2023-04-23T20:48:58.140Z,13.50
2023-04-23T20:51:52.564Z,13.50
2023-04-23T21:00:04.844Z,13.40
2023-04-23T21:02:33.067Z,13.40
2023-04-23T21:05:01.473Z,13.40
2023-04-23T21:07:29.533Z,13.40
2023-04-23T21:09:58.063Z,13.40
2023-04-23T21:12:26.384Z,13.40
2023-04-23T21:14:55.190Z,13.40
2023-04-23T21:17:25.710Z,13.30
2023-04-23T21:19:53.863Z,13.30
2023-04-23T21:22:21.883Z,13.30
2023-04-23T21:24:49.896Z,13.20
2023-04-23T21:27:21.672Z,13.20
2023-04-23T21:29:50.344Z,13.10
2023-04-23T21:32:18.513Z,13.00
2023-04-23T21:34:48.081Z,13.00
2023-04-23T21:37:16.158Z,12.90
2023-04-23T21:39:44.397Z,12.90
2023-04-23T21:42:12.757Z,12.90
2023-04-23T21:44:40.897Z,12.80
2023-04-23T21:47:09.029Z,12.80
2023-04-23T21:49:37.182Z,12.80
2023-04-23T21:52:08.974Z,12.80
2023-04-23T21:54:36.991Z,12.80
2023-04-23T21:57:05.631Z,12.80
2023-04-23T21:59:33.871Z,12.80
2023-04-23T22:02:16.202Z,12.80
2023-04-23T22:05:20.235Z,12.80
2023-04-23T22:08:09.889Z,12.80
2023-04-23T22:10:47.087Z,12.70
2023-04-23T22:13:21.852Z,12.60
2023-04-23T22:16:00.888Z,12.50
2023-04-23T22:18:36.309Z,12.50
2023-04-23T22:21:15.905Z,12.40
2023-04-23T22:23:53.184Z,12.30
2023-04-23T22:26:31.265Z,12.30
2023-04-23T22:29:00.420Z,12.20
2023-04-23T22:31:35.085Z,12.10
2023-04-23T22:34:19.979Z,12.10
2023-04-23T22:36:51.483Z,12.10
2023-04-23T22:39:26.162Z,12.10
2023-04-23T22:42:00.680Z,12.00
2023-04-23T22:44:49.560Z,12.00
2023-04-23T22:47:23.135Z,11.90
2023-04-23T22:49:57.475Z,11.90
2023-04-23T22:52:32.059Z,11.90
2023-04-23T22:55:05.734Z,11.90
2023-04-23T22:57:37.193Z,11.80
2023-04-23T23:00:16.505Z,11.80
2023-04-23T23:02:53.967Z,11.80
2023-04-23T23:05:23.118Z,11.70
2023-04-23T23:07:52.019Z,11.70
2023-04-23T23:10:23.076Z,11.70
2023-04-23T23:12:52.428Z,11.70
2023-04-23T23:15:21.216Z,11.70
2023-04-23T23:17:49.690Z,11.70
2023-04-23T23:20:20.630Z,11.70
2023-04-23T23:22:49.727Z,11.70
2023-04-23T23:25:19.518Z,11.80
2023-04-23T23:27:50.598Z,11.80
2023-04-23T23:30:19.767Z,11.90
2023-04-23T23:32:53.388Z,11.80
2023-04-23T23:35:22.969Z,11.80
2023-04-23T23:37:52.922Z,11.80
2023-04-23T23:40:21.973Z,11.80
2023-04-23T23:42:52.336Z,11.90
2023-04-23T23:45:25.542Z,11.80
2023-04-23T23:47:57.499Z,11.80
2023-04-23T23:50:29.479Z,11.80
2023-04-23T23:53:02.480Z,11.90
2023-04-23T23:55:34.470Z,11.90
2023-04-23T23:58:04.971Z,11.90
